sensor_id;sensor_type;location;lat;lon;timestamp;P1;durP1;ratioP1;P2;durP2;ratioP2
20166;SDS011;10243;49.118;8.508;2023-04-15T00:00:00;9.20;;;6.45;;
20166;SDS011;10243;49.118;8.508;2023-04-15T00:00:20;8.33;;;6.40;;
20166;SDS011;10243;49.118;8.508;2023-04-15T00:00:41;7.00;;;6.22;;
20166;SDS011;10243;49.118;8.508;2023-04-15T00:01:02;8.38;;;6.13;;
20166;SDS011;10243;49.118;8.508;2023-04-15T00:01:23;7.33;;;5.40;;
20166;SDS011;10243;49.118;8.508;2023-04-15T00:01:43;8.75;;;5.20;;
20166;SDS011;10243;49.118;8.508;2023-04-15T00:02:12;5.43;;;4.93;;
20166;SDS011;10243;49.118;8.508;2023-04-15T00:02:33;9.70;;;5.55;;
20166;SDS011;10243;49.118;8.508;2023-04-15T00:02:54;12.80;;;5.88;;
20166;SDS011;10243;49.118;8.508;2023-04-15T00:03:14;8.40;;;6.00;;
20166;SDS011;10243;49.118;8.508;2023-04-15T00:03:35;9.23;;;5.68;;
20166;SDS011;10243;49.118;8.508;2023-04-15T00:03:56;8.85;;;5.90;;
20166;SDS011;10243;49.118;8.508;2023-04-15T00:04:16;9.90;;;6.00;;
20166;SDS011;10243;49.118;8.508;2023-04-15T00:04:38;7.88;;;5.90;;
20166;SDS011;10243;49.118;8.508;2023-04-15T00:04:58;7.93;;;5.88;;
20166;SDS011;10243;49.118;8.508;2023-04-15T00:05:18;7.60;;;5.90;;
20166;SDS011;10243;49.118;8.508;2023-04-15T00:05:39;7.47;;;5.75;;
20166;SDS011;10243;49.118;8.508;2023-04-15T00:06:00;7.72;;;5.68;;
20166;SDS011;10243;49.118;8.508;2023-04-15T00:06:23;7.28;;;5.57;;
20166;SDS011;10243;49.118;8.508;2023-04-15T00:06:48;7.50;;;5.70;;
20166;SDS011;10243;49.118;8.508;2023-04-15T00:07:09;11.35;;;6.07;;
20166;SDS011;10243;49.118;8.508;2023-04-15T00:07:30;9.73;;;6.03;;
20166;SDS011;10243;49.118;8.508;2023-04-15T00:07:52;8.93;;;5.70;;
20166;SDS011;10243;49.118;8.508;2023-04-15T00:08:12;9.13;;;6.07;;
20166;SDS011;10243;49.118;8.508;2023-04-15T00:08:34;7.68;;;5.68;;
20166;SDS011;10243;49.118;8.508;2023-04-15T00:08:54;7.80;;;5.40;;
20166;SDS011;10243;49.118;8.508;2023-04-15T00:09:16;8.27;;;5.57;;
20166;SDS011;10243;49.118;8.508;2023-04-15T00:09:36;6.87;;;5.40;;
20166;SDS011;10243;49.118;8.508;2023-04-15T00:09:57;7.18;;;5.32;;
20166;SDS011;10243;49.118;8.508;2023-04-15T00:10:17;7.70;;;5.57;;
20166;SDS011;10243;49.118;8.508;2023-04-15T00:10:39;10.38;;;6.10;;
20166;SDS011;10243;49.118;8.508;2023-04-15T00:10:59;10.63;;;5.80;;
20166;SDS011;10243;49.118;8.508;2023-04-15T00:11:22;12.30;;;5.82;;
20166;SDS011;10243;49.118;8.508;2023-04-15T00:11:43;7.43;;;6.05;;
20166;SDS011;10243;49.118;8.508;2023-04-15T00:12:04;7.97;;;6.10;;
20166;SDS011;10243;49.118;8.508;2023-04-15T00:12:25;9.17;;;6.20;;
20166;SDS011;10243;49.118;8.508;2023-04-15T00:12:47;9.15;;;6.00;;
20166;SDS011;10243;49.118;8.508;2023-04-15T00:13:07;9.70;;;6.20;;
20166;SDS011;10243;49.118;8.508;2023-04-15T00:13:28;8.50;;;6.30;;
20166;SDS011;10243;49.118;8.508;2023-04-15T00:13:48;7.87;;;6.60;;
20166;SDS011;10243;49.118;8.508;2023-04-15T00:14:09;8.10;;;6.63;;
20166;SDS011;10243;49.118;8.508;2023-04-15T00:14:30;10.45;;;7.10;;
20166;SDS011;10243;49.118;8.508;2023-04-15T00:14:51;9.27;;;6.70;;
20166;SDS011;10243;49.118;8.508;2023-04-15T00:15:11;10.57;;;6.83;;
20166;SDS011;10243;49.118;8.508;2023-04-15T00:15:31;9.88;;;6.80;;
20166;SDS011;10243;49.118;8.508;2023-04-15T00:15:52;8.43;;;6.60;;
20166;SDS011;10243;49.118;8.508;2023-04-15T00:16:14;9.48;;;6.70;;
20166;SDS011;10243;49.118;8.508;2023-04-15T00:16:34;12.47;;;6.77;;
20166;SDS011;10243;49.118;8.508;2023-04-15T00:16:55;10.88;;;7.00;;
20166;SDS011;10243;49.118;8.508;2023-04-15T00:17:16;9.85;;;6.85;;
20166;SDS011;10243;49.118;8.508;2023-04-15T00:17:37;10.70;;;6.70;;
20166;SDS011;10243;49.118;8.508;2023-04-15T00:17:58;11.52;;;6.53;;
20166;SDS011;10243;49.118;8.508;2023-04-15T00:18:19;10.25;;;6.75;;
20166;SDS011;10243;49.118;8.508;2023-04-15T00:18:39;9.07;;;6.57;;
20166;SDS011;10243;49.118;8.508;2023-04-15T00:19:00;8.90;;;6.80;;
20166;SDS011;10243;49.118;8.508;2023-04-15T00:19:21;9.25;;;6.53;;
20166;SDS011;10243;49.118;8.508;2023-04-15T00:19:42;10.43;;;6.10;;
20166;SDS011;10243;49.118;8.508;2023-04-15T00:20:04;10.32;;;6.80;;
20166;SDS011;10243;49.118;8.508;2023-04-15T00:20:25;10.77;;;6.72;;
20166;SDS011;10243;49.118;8.508;2023-04-15T00:20:45;9.00;;;6.68;;
20166;SDS011;10243;49.118;8.508;2023-04-15T00:21:07;8.20;;;6.70;;
20166;SDS011;10243;49.118;8.508;2023-04-15T00:21:29;7.38;;;6.05;;
20166;SDS011;10243;49.118;8.508;2023-04-15T00:21:50;7.55;;;6.15;;
20166;SDS011;10243;49.118;8.508;2023-04-15T00:22:11;8.25;;;6.47;;
20166;SDS011;10243;49.118;8.508;2023-04-15T00:22:32;8.60;;;6.57;;
20166;SDS011;10243;49.118;8.508;2023-04-15T00:22:52;10.47;;;7.60;;
20166;SDS011;10243;49.118;8.508;2023-04-15T00:23:13;10.95;;;7.57;;
20166;SDS011;10243;49.118;8.508;2023-04-15T00:23:34;12.32;;;7.88;;
20166;SDS011;10243;49.118;8.508;2023-04-15T00:23:55;11.35;;;7.45;;
20166;SDS011;10243;49.118;8.508;2023-04-15T00:24:16;14.70;;;8.60;;
20166;SDS011;10243;49.118;8.508;2023-04-15T00:24:37;12.10;;;8.93;;
20166;SDS011;10243;49.118;8.508;2023-04-15T00:24:57;13.47;;;8.47;;
20166;SDS011;10243;49.118;8.508;2023-04-15T00:25:18;15.23;;;8.50;;
20166;SDS011;10243;49.118;8.508;2023-04-15T00:25:38;13.57;;;8.73;;
20166;SDS011;10243;49.118;8.508;2023-04-15T00:25:59;14.80;;;8.40;;
20166;SDS011;10243;49.118;8.508;2023-04-15T00:26:20;13.90;;;8.40;;
20166;SDS011;10243;49.118;8.508;2023-04-15T00:26:42;10.57;;;7.95;;
20166;SDS011;10243;49.118;8.508;2023-04-15T00:27:03;9.20;;;7.30;;
20166;SDS011;10243;49.118;8.508;2023-04-15T00:27:25;10.40;;;6.70;;
20166;SDS011;10243;49.118;8.508;2023-04-15T00:27:45;10.03;;;6.67;;
20166;SDS011;10243;49.118;8.508;2023-04-15T00:28:08;8.75;;;6.72;;
20166;SDS011;10243;49.118;8.508;2023-04-15T00:28:29;9.50;;;6.40;;
20166;SDS011;10243;49.118;8.508;2023-04-15T00:28:50;8.80;;;6.65;;
20166;SDS011;10243;49.118;8.508;2023-04-15T00:29:12;11.48;;;6.90;;
20166;SDS011;10243;49.118;8.508;2023-04-15T00:29:33;12.32;;;7.25;;
20166;SDS011;10243;49.118;8.508;2023-04-15T00:29:54;12.07;;;7.80;;
20166;SDS011;10243;49.118;8.508;2023-04-15T00:30:14;9.27;;;7.47;;
20166;SDS011;10243;49.118;8.508;2023-04-15T00:30:36;11.23;;;7.00;;
20166;SDS011;10243;49.118;8.508;2023-04-15T00:30:57;12.30;;;7.22;;
20166;SDS011;10243;49.118;8.508;2023-04-15T00:31:17;10.13;;;7.00;;
20166;SDS011;10243;49.118;8.508;2023-04-15T00:31:37;13.43;;;6.97;;
20166;SDS011;10243;49.118;8.508;2023-04-15T00:31:58;13.70;;;7.37;;
20166;SDS011;10243;49.118;8.508;2023-04-15T00:32:19;11.68;;;7.50;;
20166;SDS011;10243;49.118;8.508;2023-04-15T00:32:40;11.20;;;7.75;;
20166;SDS011;10243;49.118;8.508;2023-04-15T00:33:01;11.23;;;7.28;;
20166;SDS011;10243;49.118;8.508;2023-04-15T00:33:22;10.97;;;7.20;;
20166;SDS011;10243;49.118;8.508;2023-04-15T00:33:44;10.25;;;7.15;;
20166;SDS011;10243;49.118;8.508;2023-04-15T00:34:04;10.05;;;7.28;;
20166;SDS011;10243;49.118;8.508;2023-04-15T00:34:25;13.10;;;7.30;;
20166;SDS011;10243;49.118;8.508;2023-04-15T00:34:46;11.32;;;7.07;;
20166;SDS011;10243;49.118;8.508;2023-04-15T00:35:08;10.55;;;7.28;;
20166;SDS011;10243;49.118;8.508;2023-04-15T00:35:29;10.53;;;7.10;;
20166;SDS011;10243;49.118;8.508;2023-04-15T00:35:51;12.73;;;7.47;;
20166;SDS011;10243;49.118;8.508;2023-04-15T00:36:12;15.80;;;7.40;;
20166;SDS011;10243;49.118;8.508;2023-04-15T00:36:35;13.13;;;7.70;;
20166;SDS011;10243;49.118;8.508;2023-04-15T00:36:56;14.45;;;7.85;;
20166;SDS011;10243;49.118;8.508;2023-04-15T00:37:17;10.80;;;7.60;;
20166;SDS011;10243;49.118;8.508;2023-04-15T00:37:38;10.93;;;7.90;;
20166;SDS011;10243;49.118;8.508;2023-04-15T00:37:58;9.90;;;7.77;;
20166;SDS011;10243;49.118;8.508;2023-04-15T00:38:21;11.55;;;7.95;;
20166;SDS011;10243;49.118;8.508;2023-04-15T00:38:42;12.43;;;7.43;;
20166;SDS011;10243;49.118;8.508;2023-04-15T00:39:02;17.37;;;7.80;;
20166;SDS011;10243;49.118;8.508;2023-04-15T00:39:23;15.93;;;7.82;;
20166;SDS011;10243;49.118;8.508;2023-04-15T00:39:44;14.65;;;8.52;;
20166;SDS011;10243;49.118;8.508;2023-04-15T00:40:05;12.90;;;8.38;;
20166;SDS011;10243;49.118;8.508;2023-04-15T00:40:27;13.70;;;8.10;;
20166;SDS011;10243;49.118;8.508;2023-04-15T00:40:47;14.73;;;8.10;;
20166;SDS011;10243;49.118;8.508;2023-04-15T00:41:10;9.88;;;8.15;;
20166;SDS011;10243;49.118;8.508;2023-04-15T00:41:30;11.60;;;8.23;;
20166;SDS011;10243;49.118;8.508;2023-04-15T00:41:51;11.63;;;7.90;;
20166;SDS011;10243;49.118;8.508;2023-04-15T00:42:11;13.30;;;8.40;;
20166;SDS011;10243;49.118;8.508;2023-04-15T00:42:33;13.95;;;7.97;;
20166;SDS011;10243;49.118;8.508;2023-04-15T00:42:54;12.20;;;7.90;;
20166;SDS011;10243;49.118;8.508;2023-04-15T00:43:14;10.30;;;7.87;;
20166;SDS011;10243;49.118;8.508;2023-04-15T00:43:35;14.67;;;7.83;;
20166;SDS011;10243;49.118;8.508;2023-04-15T00:43:55;10.13;;;7.68;;
20166;SDS011;10243;49.118;8.508;2023-04-15T00:44:17;13.93;;;7.90;;
20166;SDS011;10243;49.118;8.508;2023-04-15T00:44:38;12.45;;;7.82;;
20166;SDS011;10243;49.118;8.508;2023-04-15T00:44:58;13.82;;;8.10;;
20166;SDS011;10243;49.118;8.508;2023-04-15T00:45:19;11.80;;;7.67;;
20166;SDS011;10243;49.118;8.508;2023-04-15T00:45:41;11.88;;;7.75;;
20166;SDS011;10243;49.118;8.508;2023-04-15T00:46:01;11.60;;;8.13;;
20166;SDS011;10243;49.118;8.508;2023-04-15T00:46:23;10.88;;;7.80;;
20166;SDS011;10243;49.118;8.508;2023-04-15T00:46:46;10.73;;;7.95;;
20166;SDS011;10243;49.118;8.508;2023-04-15T00:47:10;12.00;;;7.82;;
20166;SDS011;10243;49.118;8.508;2023-04-15T00:47:32;13.93;;;7.72;;
20166;SDS011;10243;49.118;8.508;2023-04-15T00:47:52;15.70;;;8.25;;
20166;SDS011;10243;49.118;8.508;2023-04-15T00:48:13;15.33;;;8.10;;
20166;SDS011;10243;49.118;8.508;2023-04-15T00:48:34;11.48;;;7.70;;
20166;SDS011;10243;49.118;8.508;2023-04-15T00:48:56;12.27;;;8.18;;
20166;SDS011;10243;49.118;8.508;2023-04-15T00:49:16;9.70;;;7.50;;
20166;SDS011;10243;49.118;8.508;2023-04-15T00:49:37;9.48;;;7.70;;
20166;SDS011;10243;49.118;8.508;2023-04-15T00:49:57;11.18;;;7.43;;
20166;SDS011;10243;49.118;8.508;2023-04-15T00:50:18;11.67;;;7.00;;
20166;SDS011;10243;49.118;8.508;2023-04-15T00:50:39;10.18;;;7.43;;
20166;SDS011;10243;49.118;8.508;2023-04-15T00:51:00;8.30;;;7.10;;
20166;SDS011;10243;49.118;8.508;2023-04-15T00:51:21;9.27;;;6.90;;
20166;SDS011;10243;49.118;8.508;2023-04-15T00:51:43;9.88;;;7.15;;
20166;SDS011;10243;49.118;8.508;2023-04-15T00:52:03;7.95;;;6.90;;
20166;SDS011;10243;49.118;8.508;2023-04-15T00:52:25;7.97;;;6.97;;
20166;SDS011;10243;49.118;8.508;2023-04-15T00:52:46;11.90;;;6.73;;
20166;SDS011;10243;49.118;8.508;2023-04-15T00:53:07;11.33;;;6.37;;
20166;SDS011;10243;49.118;8.508;2023-04-15T00:53:27;9.80;;;6.70;;
20166;SDS011;10243;49.118;8.508;2023-04-15T00:53:48;10.25;;;6.55;;
20166;SDS011;10243;49.118;8.508;2023-04-15T00:54:09;7.53;;;5.97;;
20166;SDS011;10243;49.118;8.508;2023-04-15T00:54:29;6.90;;;6.20;;
20166;SDS011;10243;49.118;8.508;2023-04-15T00:54:50;8.03;;;6.57;;
20166;SDS011;10243;49.118;8.508;2023-04-15T00:55:11;11.85;;;6.60;;
20166;SDS011;10243;49.118;8.508;2023-04-15T00:55:32;9.10;;;6.50;;
20166;SDS011;10243;49.118;8.508;2023-04-15T00:55:53;8.23;;;6.90;;
20166;SDS011;10243;49.118;8.508;2023-04-15T00:56:13;11.00;;;7.00;;
20166;SDS011;10243;49.118;8.508;2023-04-15T00:56:35;9.32;;;6.63;;
20166;SDS011;10243;49.118;8.508;2023-04-15T00:56:57;9.00;;;6.80;;
20166;SDS011;10243;49.118;8.508;2023-04-15T00:57:20;11.70;;;6.75;;
20166;SDS011;10243;49.118;8.508;2023-04-15T00:57:42;11.10;;;6.78;;
20166;SDS011;10243;49.118;8.508;2023-04-15T00:58:03;10.02;;;6.70;;
20166;SDS011;10243;49.118;8.508;2023-04-15T00:58:24;10.90;;;7.15;;
20166;SDS011;10243;49.118;8.508;2023-04-15T00:58:47;11.38;;;7.05;;
20166;SDS011;10243;49.118;8.508;2023-04-15T00:59:07;9.27;;;7.30;;
20166;SDS011;10243;49.118;8.508;2023-04-15T00:59:28;8.18;;;7.38;;
20166;SDS011;10243;49.118;8.508;2023-04-15T00:59:48;11.20;;;7.40;;
20166;SDS011;10243;49.118;8.508;2023-04-15T01:00:12;8.68;;;7.32;;
20166;SDS011;10243;49.118;8.508;2023-04-15T01:00:32;9.93;;;7.30;;
20166;SDS011;10243;49.118;8.508;2023-04-15T01:00:55;10.80;;;7.30;;
20166;SDS011;10243;49.118;8.508;2023-04-15T01:01:16;7.78;;;6.90;;
20166;SDS011;10243;49.118;8.508;2023-04-15T01:01:40;8.45;;;7.00;;
20166;SDS011;10243;49.118;8.508;2023-04-15T01:02:01;8.93;;;7.00;;
20166;SDS011;10243;49.118;8.508;2023-04-15T01:02:21;9.70;;;7.45;;
20166;SDS011;10243;49.118;8.508;2023-04-15T01:02:42;12.53;;;8.00;;
20166;SDS011;10243;49.118;8.508;2023-04-15T01:03:03;10.20;;;7.90;;
20166;SDS011;10243;49.118;8.508;2023-04-15T01:03:24;10.00;;;7.57;;
20166;SDS011;10243;49.118;8.508;2023-04-15T01:03:44;10.43;;;7.88;;
20166;SDS011;10243;49.118;8.508;2023-04-15T01:04:05;11.40;;;7.90;;
20166;SDS011;10243;49.118;8.508;2023-04-15T01:04:29;13.23;;;7.90;;
20166;SDS011;10243;49.118;8.508;2023-04-15T01:04:49;10.10;;;7.75;;
20166;SDS011;10243;49.118;8.508;2023-04-15T01:05:10;10.50;;;8.10;;
20166;SDS011;10243;49.118;8.508;2023-04-15T01:05:30;10.65;;;8.20;;
20166;SDS011;10243;49.118;8.508;2023-04-15T01:05:52;13.07;;;7.93;;
20166;SDS011;10243;49.118;8.508;2023-04-15T01:06:17;12.93;;;7.70;;
20166;SDS011;10243;49.118;8.508;2023-04-15T01:06:38;13.57;;;7.85;;
20166;SDS011;10243;49.118;8.508;2023-04-15T01:07:00;11.45;;;8.25;;
20166;SDS011;10243;49.118;8.508;2023-04-15T01:07:20;11.35;;;8.32;;
20166;SDS011;10243;49.118;8.508;2023-04-15T01:07:41;11.68;;;7.95;;
20166;SDS011;10243;49.118;8.508;2023-04-15T01:08:02;10.90;;;7.37;;
20166;SDS011;10243;49.118;8.508;2023-04-15T01:08:23;11.80;;;7.95;;
20166;SDS011;10243;49.118;8.508;2023-04-15T01:08:45;14.35;;;7.90;;
20166;SDS011;10243;49.118;8.508;2023-04-15T01:09:05;13.67;;;7.50;;
20166;SDS011;10243;49.118;8.508;2023-04-15T01:09:27;10.95;;;7.70;;
20166;SDS011;10243;49.118;8.508;2023-04-15T01:09:47;12.48;;;7.85;;
20166;SDS011;10243;49.118;8.508;2023-04-15T01:10:08;12.30;;;7.87;;
20166;SDS011;10243;49.118;8.508;2023-04-15T01:10:28;14.38;;;8.10;;
20166;SDS011;10243;49.118;8.508;2023-04-15T01:10:50;13.95;;;8.27;;
20166;SDS011;10243;49.118;8.508;2023-04-15T01:11:11;10.43;;;7.78;;
20166;SDS011;10243;49.118;8.508;2023-04-15T01:11:33;9.63;;;7.43;;
20166;SDS011;10243;49.118;8.508;2023-04-15T01:11:54;9.75;;;7.32;;
20166;SDS011;10243;49.118;8.508;2023-04-15T01:12:15;8.17;;;7.00;;
20166;SDS011;10243;49.118;8.508;2023-04-15T01:12:37;9.55;;;7.22;;
20166;SDS011;10243;49.118;8.508;2023-04-15T01:12:58;9.85;;;7.72;;
20166;SDS011;10243;49.118;8.508;2023-04-15T01:13:19;11.60;;;8.10;;
20166;SDS011;10243;49.118;8.508;2023-04-15T01:13:40;12.48;;;8.30;;
20166;SDS011;10243;49.118;8.508;2023-04-15T01:14:02;12.23;;;8.50;;
20166;SDS011;10243;49.118;8.508;2023-04-15T01:14:22;13.40;;;8.57;;
20166;SDS011;10243;49.118;8.508;2023-04-15T01:14:43;14.87;;;7.93;;
20166;SDS011;10243;49.118;8.508;2023-04-15T01:15:04;14.70;;;7.70;;
20166;SDS011;10243;49.118;8.508;2023-04-15T01:15:26;9.70;;;7.68;;
20166;SDS011;10243;49.118;8.508;2023-04-15T01:15:47;11.27;;;8.10;;
20166;SDS011;10243;49.118;8.508;2023-04-15T01:16:07;10.50;;;7.80;;
20166;SDS011;10243;49.118;8.508;2023-04-15T01:16:28;12.65;;;7.82;;
20166;SDS011;10243;49.118;8.508;2023-04-15T01:16:50;13.80;;;8.25;;
20166;SDS011;10243;49.118;8.508;2023-04-15T01:17:11;10.70;;;8.23;;
20166;SDS011;10243;49.118;8.508;2023-04-15T01:17:33;10.48;;;7.90;;
20166;SDS011;10243;49.118;8.508;2023-04-15T01:17:54;13.15;;;7.55;;
20166;SDS011;10243;49.118;8.508;2023-04-15T01:18:15;9.32;;;7.10;;
20166;SDS011;10243;49.118;8.508;2023-04-15T01:18:39;11.10;;;6.97;;
20166;SDS011;10243;49.118;8.508;2023-04-15T01:19:00;11.02;;;7.03;;
20166;SDS011;10243;49.118;8.508;2023-04-15T01:19:20;10.63;;;6.87;;
20166;SDS011;10243;49.118;8.508;2023-04-15T01:19:42;13.52;;;6.95;;
20166;SDS011;10243;49.118;8.508;2023-04-15T01:20:03;10.93;;;6.93;;
20166;SDS011;10243;49.118;8.508;2023-04-15T01:20:24;9.48;;;6.88;;
20166;SDS011;10243;49.118;8.508;2023-04-15T01:20:45;10.90;;;7.05;;
20166;SDS011;10243;49.118;8.508;2023-04-15T01:21:05;8.40;;;6.80;;
20166;SDS011;10243;49.118;8.508;2023-04-15T01:21:27;9.45;;;7.00;;
20166;SDS011;10243;49.118;8.508;2023-04-15T01:21:48;10.83;;;6.90;;
20166;SDS011;10243;49.118;8.508;2023-04-15T01:22:09;9.43;;;7.05;;
20166;SDS011;10243;49.118;8.508;2023-04-15T01:22:31;9.48;;;7.25;;
20166;SDS011;10243;49.118;8.508;2023-04-15T01:22:53;10.10;;;7.22;;
20166;SDS011;10243;49.118;8.508;2023-04-15T01:23:14;10.77;;;7.10;;
20166;SDS011;10243;49.118;8.508;2023-04-15T01:23:36;12.43;;;6.85;;
20166;SDS011;10243;49.118;8.508;2023-04-15T01:23:57;9.27;;;7.20;;
20166;SDS011;10243;49.118;8.508;2023-04-15T01:24:19;8.65;;;7.22;;
20166;SDS011;10243;49.118;8.508;2023-04-15T01:24:40;9.77;;;7.38;;
20166;SDS011;10243;49.118;8.508;2023-04-15T01:25:05;8.40;;;7.22;;
20166;SDS011;10243;49.118;8.508;2023-04-15T01:25:31;8.95;;;7.07;;
20166;SDS011;10243;49.118;8.508;2023-04-15T01:25:53;7.82;;;7.03;;
20166;SDS011;10243;49.118;8.508;2023-04-15T01:26:13;11.07;;;7.47;;
20166;SDS011;10243;49.118;8.508;2023-04-15T01:26:34;12.25;;;7.68;;
20166;SDS011;10243;49.118;8.508;2023-04-15T01:26:55;10.13;;;7.75;;
20166;SDS011;10243;49.118;8.508;2023-04-15T01:27:17;10.90;;;7.60;;
20166;SDS011;10243;49.118;8.508;2023-04-15T01:27:38;14.25;;;7.85;;
20166;SDS011;10243;49.118;8.508;2023-04-15T01:28:00;12.73;;;7.70;;
20166;SDS011;10243;49.118;8.508;2023-04-15T01:28:20;13.35;;;7.55;;
20166;SDS011;10243;49.118;8.508;2023-04-15T01:28:41;11.63;;;7.53;;
20166;SDS011;10243;49.118;8.508;2023-04-15T01:29:02;9.88;;;7.43;;
20166;SDS011;10243;49.118;8.508;2023-04-15T01:29:23;13.33;;;7.77;;
20166;SDS011;10243;49.118;8.508;2023-04-15T01:29:44;14.38;;;7.75;;
20166;SDS011;10243;49.118;8.508;2023-04-15T01:30:06;13.43;;;7.78;;
20166;SDS011;10243;49.118;8.508;2023-04-15T01:30:27;11.60;;;7.60;;
20166;SDS011;10243;49.118;8.508;2023-04-15T01:30:48;10.02;;;7.50;;
20166;SDS011;10243;49.118;8.508;2023-04-15T01:31:09;12.43;;;7.90;;
20166;SDS011;10243;49.118;8.508;2023-04-15T01:31:31;9.02;;;7.43;;
20166;SDS011;10243;49.118;8.508;2023-04-15T01:31:53;11.48;;;7.50;;
20166;SDS011;10243;49.118;8.508;2023-04-15T01:32:14;11.68;;;7.63;;
20166;SDS011;10243;49.118;8.508;2023-04-15T01:32:34;10.60;;;7.33;;
20166;SDS011;10243;49.118;8.508;2023-04-15T01:32:55;8.68;;;7.05;;
20166;SDS011;10243;49.118;8.508;2023-04-15T01:33:15;9.80;;;7.27;;
20166;SDS011;10243;49.118;8.508;2023-04-15T01:33:38;10.10;;;7.35;;
20166;SDS011;10243;49.118;8.508;2023-04-15T01:34:00;10.60;;;7.10;;
20166;SDS011;10243;49.118;8.508;2023-04-15T01:34:20;11.60;;;7.20;;
20166;SDS011;10243;49.118;8.508;2023-04-15T01:34:41;9.48;;;6.63;;
20166;SDS011;10243;49.118;8.508;2023-04-15T01:35:02;9.48;;;6.53;;
20166;SDS011;10243;49.118;8.508;2023-04-15T01:35:23;7.57;;;6.70;;
20166;SDS011;10243;49.118;8.508;2023-04-15T01:35:45;7.75;;;6.68;;
20166;SDS011;10243;49.118;8.508;2023-04-15T01:36:05;8.70;;;6.77;;
20166;SDS011;10243;49.118;8.508;2023-04-15T01:36:27;7.70;;;6.78;;
20166;SDS011;10243;49.118;8.508;2023-04-15T01:36:48;8.18;;;6.78;;
20166;SDS011;10243;49.118;8.508;2023-04-15T01:37:08;8.30;;;6.50;;
20166;SDS011;10243;49.118;8.508;2023-04-15T01:37:28;10.00;;;6.97;;
20166;SDS011;10243;49.118;8.508;2023-04-15T01:37:49;10.57;;;6.60;;
20166;SDS011;10243;49.118;8.508;2023-04-15T01:38:10;9.57;;;6.47;;
20166;SDS011;10243;49.118;8.508;2023-04-15T01:38:31;9.07;;;6.63;;
20166;SDS011;10243;49.118;8.508;2023-04-15T01:38:52;7.90;;;6.43;;
20166;SDS011;10243;49.118;8.508;2023-04-15T01:39:15;8.98;;;6.28;;
20166;SDS011;10243;49.118;8.508;2023-04-15T01:39:36;13.45;;;6.57;;
20166;SDS011;10243;49.118;8.508;2023-04-15T01:39:57;8.37;;;6.60;;
20166;SDS011;10243;49.118;8.508;2023-04-15T01:40:17;7.33;;;6.60;;
20166;SDS011;10243;49.118;8.508;2023-04-15T01:40:39;7.20;;;6.45;;
20166;SDS011;10243;49.118;8.508;2023-04-15T01:41:00;7.18;;;6.47;;
20166;SDS011;10243;49.118;8.508;2023-04-15T01:41:23;7.65;;;6.35;;
20166;SDS011;10243;49.118;8.508;2023-04-15T01:41:45;7.93;;;6.55;;
20166;SDS011;10243;49.118;8.508;2023-04-15T01:42:05;7.63;;;6.87;;
20166;SDS011;10243;49.118;8.508;2023-04-15T01:42:26;7.72;;;6.72;;
20166;SDS011;10243;49.118;8.508;2023-04-15T01:42:48;8.75;;;6.60;;
20166;SDS011;10243;49.118;8.508;2023-04-15T01:43:09;7.00;;;6.32;;
20166;SDS011;10243;49.118;8.508;2023-04-15T01:43:29;7.67;;;6.73;;
20166;SDS011;10243;49.118;8.508;2023-04-15T01:43:49;9.80;;;6.78;;
20166;SDS011;10243;49.118;8.508;2023-04-15T01:44:10;10.73;;;6.83;;
20166;SDS011;10243;49.118;8.508;2023-04-15T01:44:33;12.50;;;7.38;;
20166;SDS011;10243;49.118;8.508;2023-04-15T01:44:53;11.23;;;6.90;;
20166;SDS011;10243;49.118;8.508;2023-04-15T01:45:14;9.60;;;6.93;;
20166;SDS011;10243;49.118;8.508;2023-04-15T01:45:34;12.07;;;7.10;;
20166;SDS011;10243;49.118;8.508;2023-04-15T01:45:57;10.05;;;7.10;;
20166;SDS011;10243;49.118;8.508;2023-04-15T01:46:18;7.65;;;6.95;;
20166;SDS011;10243;49.118;8.508;2023-04-15T01:46:39;9.00;;;7.20;;
20166;SDS011;10243;49.118;8.508;2023-04-15T01:46:59;11.57;;;6.97;;
20166;SDS011;10243;49.118;8.508;2023-04-15T01:47:21;9.52;;;7.00;;
20166;SDS011;10243;49.118;8.508;2023-04-15T01:47:41;8.43;;;7.10;;
20166;SDS011;10243;49.118;8.508;2023-04-15T01:48:03;9.27;;;7.25;;
20166;SDS011;10243;49.118;8.508;2023-04-15T01:48:23;11.00;;;7.65;;
20166;SDS011;10243;49.118;8.508;2023-04-15T01:48:44;13.43;;;8.20;;
20166;SDS011;10243;49.118;8.508;2023-04-15T01:49:04;10.52;;;7.68;;
20166;SDS011;10243;49.118;8.508;2023-04-15T01:49:26;10.87;;;7.30;;
20166;SDS011;10243;49.118;8.508;2023-04-15T01:49:47;12.67;;;7.50;;
20166;SDS011;10243;49.118;8.508;2023-04-15T01:50:08;12.98;;;7.68;;
20166;SDS011;10243;49.118;8.508;2023-04-15T01:50:31;10.02;;;7.28;;
20166;SDS011;10243;49.118;8.508;2023-04-15T01:50:53;11.27;;;7.70;;
20166;SDS011;10243;49.118;8.508;2023-04-15T01:51:14;10.38;;;7.65;;
20166;SDS011;10243;49.118;8.508;2023-04-15T01:51:36;10.05;;;7.30;;
20166;SDS011;10243;49.118;8.508;2023-04-15T01:51:56;10.10;;;7.25;;
20166;SDS011;10243;49.118;8.508;2023-04-15T01:52:17;10.40;;;7.17;;
20166;SDS011;10243;49.118;8.508;2023-04-15T01:52:37;10.13;;;7.20;;
20166;SDS011;10243;49.118;8.508;2023-04-15T01:52:58;12.73;;;7.07;;
20166;SDS011;10243;49.118;8.508;2023-04-15T01:53:19;12.57;;;7.27;;
20166;SDS011;10243;49.118;8.508;2023-04-15T01:53:40;8.48;;;6.97;;
20166;SDS011;10243;49.118;8.508;2023-04-15T01:54:02;9.30;;;6.82;;
20166;SDS011;10243;49.118;8.508;2023-04-15T01:54:23;10.23;;;7.07;;
20166;SDS011;10243;49.118;8.508;2023-04-15T01:54:45;10.52;;;7.20;;
20166;SDS011;10243;49.118;8.508;2023-04-15T01:55:06;9.77;;;7.10;;
20166;SDS011;10243;49.118;8.508;2023-04-15T01:55:27;9.25;;;7.28;;
20166;SDS011;10243;49.118;8.508;2023-04-15T01:55:48;8.90;;;7.07;;
20166;SDS011;10243;49.118;8.508;2023-04-15T01:56:10;9.05;;;7.20;;
20166;SDS011;10243;49.118;8.508;2023-04-15T01:56:31;10.38;;;7.30;;
20166;SDS011;10243;49.118;8.508;2023-04-15T01:56:51;11.43;;;7.30;;
20166;SDS011;10243;49.118;8.508;2023-04-15T01:57:11;10.07;;;7.55;;
20166;SDS011;10243;49.118;8.508;2023-04-15T01:57:33;11.25;;;7.75;;
20166;SDS011;10243;49.118;8.508;2023-04-15T01:57:54;13.15;;;7.57;;
20166;SDS011;10243;49.118;8.508;2023-04-15T01:58:14;10.05;;;7.07;;
20166;SDS011;10243;49.118;8.508;2023-04-15T01:58:35;8.93;;;7.20;;
20166;SDS011;10243;49.118;8.508;2023-04-15T01:58:56;9.55;;;7.35;;
20166;SDS011;10243;49.118;8.508;2023-04-15T01:59:17;13.57;;;7.40;;
20166;SDS011;10243;49.118;8.508;2023-04-15T01:59:38;11.80;;;7.15;;
20166;SDS011;10243;49.118;8.508;2023-04-15T01:59:58;10.43;;;7.07;;
20166;SDS011;10243;49.118;8.508;2023-04-15T02:00:18;10.25;;;7.30;;
20166;SDS011;10243;49.118;8.508;2023-04-15T02:00:41;12.05;;;7.18;;
20166;SDS011;10243;49.118;8.508;2023-04-15T02:01:02;12.88;;;7.30;;
20166;SDS011;10243;49.118;8.508;2023-04-15T02:01:25;13.02;;;7.38;;
20166;SDS011;10243;49.118;8.508;2023-04-15T02:01:45;10.47;;;7.63;;
20166;SDS011;10243;49.118;8.508;2023-04-15T02:02:09;9.85;;;7.47;;
20166;SDS011;10243;49.118;8.508;2023-04-15T02:02:30;10.57;;;7.10;;
20166;SDS011;10243;49.118;8.508;2023-04-15T02:02:50;9.65;;;7.00;;
20166;SDS011;10243;49.118;8.508;2023-04-15T02:03:11;13.53;;;7.20;;
20166;SDS011;10243;49.118;8.508;2023-04-15T02:03:31;14.10;;;6.90;;
20166;SDS011;10243;49.118;8.508;2023-04-15T02:03:53;11.85;;;6.80;;
20166;SDS011;10243;49.118;8.508;2023-04-15T02:04:13;7.80;;;6.80;;
20166;SDS011;10243;49.118;8.508;2023-04-15T02:04:35;8.90;;;6.32;;
20166;SDS011;10243;49.118;8.508;2023-04-15T02:04:56;8.23;;;6.20;;
20166;SDS011;10243;49.118;8.508;2023-04-15T02:05:17;7.22;;;6.05;;
20166;SDS011;10243;49.118;8.508;2023-04-15T02:05:40;9.13;;;5.80;;
20166;SDS011;10243;49.118;8.508;2023-04-15T02:06:01;8.23;;;5.70;;
20166;SDS011;10243;49.118;8.508;2023-04-15T02:06:23;8.55;;;6.22;;